createdAt,value
2018-07-20T00:01:16.356Z,95473.10
2018-07-20T00:03:46.402Z,95469.08
2018-07-20T00:06:16.435Z,95470.75
2018-07-20T00:08:46.130Z,95466.73
2018-07-20T00:11:16.172Z,95464.38
2018-07-20T00:13:46.239Z,95455.17
2018-07-20T00:16:16.296Z,95464.05
2018-07-20T00:18:46.319Z,95458.73
2018-07-20T00:21:16.381Z,95459.80
2018-07-20T00:23:46.390Z,95463.38
2018-07-20T00:26:16.065Z,95461.00
2018-07-20T00:28:46.045Z,95460.48
2018-07-20T00:31:16.084Z,95452.44
2018-07-20T00:33:46.081Z,95448.19
2018-07-20T00:36:16.101Z,95446.88
2018-07-20T00:38:46.138Z,95445.84
2018-07-20T00:41:16.213Z,95447.25
2018-07-20T00:43:46.262Z,95441.34
2018-07-20T00:46:16.309Z,95441.69
2018-07-20T00:48:46.306Z,95435.53
2018-07-20T00:51:16.390Z,95434.97
2018-07-20T00:53:46.444Z,95430.40
2018-07-20T00:56:16.539Z,95438.49
2018-07-20T00:58:46.590Z,95425.02
2018-07-20T01:01:16.635Z,95425.34
2018-07-20T01:03:46.658Z,95423.49
2018-07-20T01:06:16.747Z,95417.79
2018-07-20T01:08:46.812Z,95420.26
2018-07-20T01:11:16.891Z,95417.33
2018-07-20T01:13:46.928Z,95420.56
2018-07-20T01:16:17.043Z,95409.55
2018-07-20T01:18:47.078Z,95423.33
2018-07-20T01:21:17.143Z,95421.52
2018-07-20T01:23:47.187Z,95413.17
2018-07-20T01:26:17.246Z,95412.64
2018-07-20T01:28:47.302Z,95417.73
2018-07-20T01:31:17.427Z,95409.97
2018-07-20T01:33:47.421Z,95413.50
2018-07-20T01:36:17.501Z,95410.56
2018-07-20T01:38:47.523Z,95416.47
2018-07-20T01:41:17.534Z,95407.59
2018-07-20T01:43:47.522Z,95410.28
2018-07-20T01:46:17.537Z,95404.09
2018-07-20T01:48:47.528Z,95412.75
2018-07-20T01:51:17.544Z,95411.66
2018-07-20T01:53:47.649Z,95408.12
2018-07-20T01:56:17.733Z,95405.74
2018-07-20T01:58:47.777Z,95401.45
2018-07-20T02:01:17.967Z,95394.72
2018-07-20T02:03:48.335Z,95397.67
2018-07-20T02:06:18.396Z,95398.77
2018-07-20T02:08:48.501Z,95396.91
2018-07-20T02:11:18.692Z,95397.17
2018-07-20T02:13:48.803Z,95394.00
2018-07-20T02:16:18.867Z,95395.08
2018-07-20T02:18:48.895Z,95396.70
2018-07-20T02:21:19.536Z,95395.62
2018-07-20T02:23:49.595Z,95401.82
2018-07-20T02:26:19.695Z,95399.95
2018-07-20T02:28:50.585Z,95391.63
2018-07-20T02:31:20.637Z,95394.84
2018-07-20T02:33:50.665Z,95392.69
2018-07-20T02:36:20.740Z,95393.75
2018-07-20T02:38:50.802Z,95395.09
2018-07-20T02:41:20.852Z,95390.80
2018-07-20T02:43:50.861Z,95388.36
2018-07-20T02:46:20.944Z,95389.69
2018-07-20T02:48:50.935Z,95385.36
2018-07-20T02:51:20.983Z,95385.09
2018-07-20T02:53:50.994Z,95385.87
2018-07-20T02:56:21.119Z,95383.42
2018-07-20T02:58:51.139Z,95382.86
2018-07-20T03:01:21.267Z,95386.66
2018-07-20T03:03:51.266Z,95382.86
2018-07-20T03:06:21.333Z,95387.45
2018-07-20T03:08:51.393Z,95375.05
2018-07-20T03:11:21.431Z,95383.14
2018-07-20T03:13:51.408Z,95386.11
2018-07-20T03:16:21.589Z,95381.24
2018-07-20T03:18:51.624Z,95377.19
2018-07-20T03:21:21.693Z,95376.89
2018-07-20T03:23:51.702Z,95382.53
2018-07-20T03:26:21.719Z,95379.58
2018-07-20T03:28:51.767Z,95381.46
2018-07-20T03:31:21.755Z,95375.84
2018-07-20T03:33:51.775Z,95374.45
2018-07-20T03:36:21.810Z,95381.45
2018-07-20T03:38:51.837Z,95378.24
2018-07-20T03:41:21.827Z,95376.89
2018-07-20T03:43:51.487Z,95376.89
2018-07-20T03:46:21.493Z,95372.86
2018-07-20T03:48:51.804Z,95375.33
2018-07-20T03:51:21.810Z,95379.09
2018-07-20T03:53:52.307Z,95371.56
2018-07-20T03:56:22.310Z,95365.64
2018-07-20T03:58:52.396Z,95365.67
2018-07-20T04:01:22.443Z,95351.98
2018-07-20T04:03:52.467Z,95360.88
2018-07-20T04:06:22.455Z,95364.70
2018-07-20T04:08:52.534Z,95369.81
2018-07-20T04:11:22.536Z,95373.09
2018-07-20T04:13:52.563Z,95369.05
2018-07-20T04:16:22.564Z,95368.48
2018-07-20T04:18:52.581Z,95366.05
2018-07-20T04:21:22.613Z,95362.78
2018-07-20T04:23:52.623Z,95360.88
2018-07-20T04:26:22.631Z,95357.34
2018-07-20T04:28:52.649Z,95360.03
2018-07-20T04:31:22.641Z,95353.80
2018-07-20T04:33:52.273Z,95345.44
2018-07-20T04:36:22.310Z,95350.81
2018-07-20T04:38:52.366Z,95347.28
2018-07-20T04:41:22.377Z,95341.34
2018-07-20T04:43:52.452Z,95343.20
2018-07-20T04:46:22.426Z,95350.23
2018-07-20T04:48:52.473Z,95339.47
2018-07-20T04:51:22.499Z,95348.83
2018-07-20T04:53:52.501Z,95345.56
2018-07-20T04:56:22.510Z,95338.52
2018-07-20T04:58:52.642Z,95348.73
2018-07-20T05:01:22.597Z,95345.45
2018-07-20T05:03:52.743Z,95354.05
2018-07-20T05:06:22.762Z,95343.76
2018-07-20T05:08:52.830Z,95343.73
2018-07-20T05:11:22.845Z,95345.64
2018-07-20T05:13:52.901Z,95345.36
2018-07-20T05:16:22.952Z,95342.87
2018-07-20T05:18:52.977Z,95344.42
2018-07-20T05:21:22.949Z,95343.51
2018-07-20T05:23:53.024Z,95344.20
2018-07-20T05:26:23.074Z,95345.17
2018-07-20T05:28:53.087Z,95336.89
2018-07-20T05:31:23.071Z,95340.70
2018-07-20T05:33:53.150Z,95338.03
2018-07-20T05:36:23.159Z,95335.30
2018-07-20T05:38:53.255Z,95332.06
2018-07-20T05:41:23.378Z,95329.03
2018-07-20T05:43:53.500Z,95322.34
2018-07-20T05:46:23.073Z,95326.39
2018-07-20T05:48:53.155Z,95330.08
2018-07-20T05:51:23.208Z,95320.06
2018-07-20T05:53:53.310Z,95317.30
2018-07-20T05:56:23.343Z,95317.39
2018-07-20T05:58:53.414Z,95308.94
2018-07-20T06:01:23.482Z,95312.37
2018-07-20T06:03:53.561Z,95311.14
2018-07-20T06:06:23.600Z,95310.38
2018-07-20T06:08:53.742Z,95301.38
2018-07-20T06:11:23.824Z,95302.59
2018-07-20T06:13:53.902Z,95310.15
2018-07-20T06:16:23.946Z,95302.18
2018-07-20T06:18:54.036Z,95303.06
2018-07-20T06:21:24.186Z,95251.53
2018-07-20T06:23:54.314Z,95302.59
2018-07-20T06:26:24.629Z,95299.80
2018-07-20T06:28:54.702Z,95302.84
2018-07-20T06:31:24.759Z,95304.20
2018-07-20T06:33:55.080Z,95304.09
2018-07-20T06:36:25.141Z,95306.87
2018-07-20T06:38:55.247Z,95301.45
2018-07-20T06:41:25.389Z,95303.41
2018-07-20T06:43:55.445Z,95307.16
2018-07-20T06:46:25.494Z,95307.50
2018-07-20T06:48:55.555Z,95301.52
2018-07-20T06:51:25.560Z,95306.14
2018-07-20T06:53:55.548Z,95314.34
2018-07-20T06:56:25.584Z,95314.57
2018-07-20T06:58:55.199Z,95320.81
2018-07-20T07:01:25.264Z,95320.42
2018-07-20T07:03:55.294Z,95322.22
2018-07-20T07:06:25.351Z,95317.41
2018-07-20T07:08:55.342Z,95315.03
2018-07-20T07:11:25.434Z,95320.80
2018-07-20T07:13:55.482Z,95325.95
2018-07-20T07:16:25.515Z,95325.85
2018-07-20T07:18:55.515Z,95323.03
2018-07-20T07:21:25.553Z,95327.55
2018-07-20T07:23:55.526Z,95321.30
2018-07-20T07:26:25.609Z,95330.33
2018-07-20T07:28:55.642Z,95319.10
2018-07-20T07:31:25.737Z,95322.48
2018-07-20T07:33:55.727Z,95329.47
2018-07-20T07:36:25.772Z,95318.20
2018-07-20T07:38:55.821Z,95325.80
2018-07-20T07:41:25.911Z,95325.31
2018-07-20T07:43:55.911Z,95319.81
2018-07-20T07:46:25.974Z,95324.85
2018-07-20T07:48:55.957Z,95316.98
2018-07-20T07:51:26.022Z,95325.55
2018-07-20T07:53:56.013Z,95329.47
2018-07-20T07:56:26.075Z,95326.36
2018-07-20T07:58:56.091Z,95323.98
2018-07-20T08:01:26.166Z,95325.70
2018-07-20T08:03:56.163Z,95326.02
2018-07-20T08:06:26.162Z,95323.66
2018-07-20T08:08:56.203Z,95322.09
2018-07-20T08:11:25.869Z,95323.00
2018-07-20T08:13:55.941Z,95311.33
2018-07-20T08:16:26.044Z,95316.53
2018-07-20T08:18:56.086Z,95307.22
2018-07-20T08:21:26.159Z,95308.20
2018-07-20T08:23:56.138Z,95309.04
2018-07-20T08:26:26.157Z,95308.69
2018-07-20T08:28:56.176Z,95304.95
2018-07-20T08:31:26.225Z,95314.64
2018-07-20T08:33:56.238Z,95309.75
2018-07-20T08:36:26.270Z,95312.59
2018-07-20T08:38:56.338Z,95310.45
2018-07-20T08:41:26.438Z,95286.16
2018-07-20T08:43:56.433Z,95303.41
2018-07-20T08:46:26.524Z,95302.69
2018-07-20T08:48:56.502Z,95306.73
2018-07-20T08:51:26.644Z,95296.02
2018-07-20T08:53:56.719Z,95291.91
2018-07-20T08:56:26.718Z,95287.02
2018-07-20T08:58:56.748Z,95294.27
2018-07-20T09:01:26.808Z,95290.06
2018-07-20T09:03:56.801Z,95289.38
2018-07-20T09:06:26.859Z,95282.83
2018-07-20T09:08:56.855Z,95283.91
2018-07-20T09:11:26.885Z,95287.64
2018-07-20T09:13:56.963Z,95287.59
2018-07-20T09:16:26.997Z,95295.73
2018-07-20T09:18:57.016Z,95286.09
2018-07-20T09:21:27.054Z,95297.57
2018-07-20T09:23:57.067Z,95296.69
2018-07-20T09:26:27.111Z,95294.88
2018-07-20T09:28:57.135Z,95294.12
2018-07-20T09:31:27.223Z,95292.38
2018-07-20T09:33:57.235Z,95293.80
2018-07-20T09:36:27.354Z,95303.42
2018-07-20T09:38:57.417Z,95302.10
2018-07-20T09:41:27.451Z,95304.31
2018-07-20T09:43:57.471Z,95310.59
2018-07-20T09:46:27.516Z,95313.14
2018-07-20T09:48:58.446Z,95308.86
2018-07-20T09:51:28.398Z,95307.73
2018-07-20T09:53:58.414Z,95310.16
2018-07-20T09:56:28.506Z,95313.82
2018-07-20T09:58:58.540Z,95305.45
2018-07-20T10:01:28.612Z,95305.13
2018-07-20T10:03:58.714Z,95304.81
2018-07-20T10:06:28.714Z,95301.65
2018-07-20T10:08:59.560Z,95302.98
2018-07-20T10:11:29.738Z,95298.61
2018-07-20T10:13:59.742Z,95302.05
2018-07-20T10:16:29.792Z,95297.57
2018-07-20T10:18:59.890Z,95294.88
2018-07-20T10:21:29.902Z,95297.55
2018-07-20T10:23:59.920Z,95295.73
2018-07-20T10:26:29.946Z,95282.72
2018-07-20T10:29:00.807Z,95293.02
2018-07-20T10:31:30.872Z,95286.59
2018-07-20T10:34:00.955Z,95284.86
2018-07-20T10:36:30.971Z,95285.28
2018-07-20T10:39:01.053Z,95279.45
2018-07-20T10:41:31.076Z,95281.50
2018-07-20T10:44:01.061Z,95283.39
2018-07-20T10:46:31.122Z,95279.58
2018-07-20T10:49:01.285Z,95282.25
2018-07-20T10:51:31.298Z,95275.23
2018-07-20T10:54:01.348Z,95280.01
2018-07-20T10:56:31.356Z,95272.25
2018-07-20T10:59:01.409Z,95270.45
2018-07-20T11:01:31.433Z,95262.64
2018-07-20T11:04:01.428Z,95262.20
2018-07-20T11:06:31.456Z,95254.77
2018-07-20T11:09:01.546Z,95251.29
2018-07-20T11:11:31.548Z,95259.73
2018-07-20T11:14:01.561Z,95253.81
2018-07-20T11:16:31.551Z,95250.35
2018-07-20T11:19:01.607Z,95244.79
2018-07-20T11:21:31.665Z,95244.41
2018-07-20T11:24:01.731Z,95244.38
2018-07-20T11:26:32.125Z,95243.09
2018-07-20T11:29:02.183Z,95238.33
2018-07-20T11:31:32.351Z,95245.52
2018-07-20T11:34:02.479Z,95242.50
2018-07-20T11:36:32.881Z,95239.91
2018-07-20T11:39:03.049Z,95237.69
2018-07-20T11:41:33.573Z,95224.33
2018-07-20T11:44:03.729Z,95227.66
2018-07-20T11:46:33.785Z,95229.60
2018-07-20T11:49:03.853Z,95229.00
2018-07-20T11:51:33.884Z,95221.17
2018-07-20T11:54:03.972Z,95229.96
2018-07-20T11:56:34.033Z,95235.42
2018-07-20T11:59:04.108Z,95230.37
2018-07-20T12:01:34.244Z,95222.78
2018-07-20T12:04:04.342Z,95224.63
2018-07-20T12:06:34.358Z,95218.94
2018-07-20T12:09:06.514Z,95216.92
2018-07-20T12:11:36.154Z,95213.90
2018-07-20T12:14:06.247Z,95209.08
2018-07-20T12:16:36.274Z,95207.44
2018-07-20T12:19:06.346Z,95190.98
2018-07-20T12:21:36.395Z,95194.16
2018-07-20T12:24:06.035Z,95195.73
2018-07-20T12:26:36.055Z,95194.56
2018-07-20T12:29:06.399Z,95189.34
2018-07-20T12:31:36.478Z,95192.69
2018-07-20T12:34:06.925Z,95188.97
2018-07-20T12:36:36.975Z,95185.72
2018-07-20T12:39:10.499Z,95176.16
2018-07-20T12:41:41.163Z,95181.02
2018-07-20T12:44:10.785Z,95179.11
2018-07-20T12:46:40.510Z,95174.20
2018-07-20T12:49:10.524Z,95181.14
2018-07-20T12:51:40.550Z,95182.97
2018-07-20T12:54:10.596Z,95181.47
2018-07-20T12:56:40.635Z,95175.67
2018-07-20T12:59:10.846Z,95168.34
2018-07-20T13:01:40.878Z,95160.55
2018-07-20T13:04:11.025Z,95165.45
2018-07-20T13:06:41.253Z,95163.66
2018-07-20T13:09:12.974Z,95160.91
2018-07-20T13:11:43.737Z,95156.98
2018-07-20T13:14:14.161Z,95155.81
2018-07-20T13:16:44.253Z,95161.16
2018-07-20T13:19:14.310Z,95158.98
2018-07-20T13:21:44.449Z,95157.80
2018-07-20T13:24:14.573Z,95154.44
2018-07-20T13:26:44.713Z,95158.23
2018-07-20T13:29:14.399Z,95157.20
2018-07-20T13:31:44.519Z,95156.23
2018-07-20T13:34:14.589Z,95158.15
2018-07-20T13:36:44.281Z,95153.83
2018-07-20T13:39:14.469Z,95154.56
2018-07-20T13:41:44.528Z,95163.50
2018-07-20T13:44:14.597Z,95166.41
2018-07-20T13:46:44.847Z,95162.92
2018-07-20T13:49:14.960Z,95153.87
2018-07-20T13:51:45.133Z,95153.43
2018-07-20T13:54:14.840Z,95163.84
2018-07-20T13:56:44.978Z,95156.97
2018-07-20T13:59:15.081Z,95160.58
2018-07-20T14:01:44.840Z,95158.26
2018-07-20T14:04:15.006Z,95153.13
2018-07-20T14:06:45.290Z,95149.28
2018-07-20T14:09:15.537Z,95151.31
2018-07-20T14:11:46.440Z,95147.69
2018-07-20T14:14:17.369Z,95149.27
2018-07-20T14:16:47.603Z,95147.83
2018-07-20T14:19:18.543Z,95154.84
2018-07-20T14:21:48.659Z,95149.48
2018-07-20T14:24:18.746Z,95152.43
2018-07-20T14:26:48.956Z,95151.87
2018-07-20T14:29:19.477Z,95148.55
2018-07-20T14:31:49.701Z,95155.70
2018-07-20T14:34:19.730Z,95147.75
2018-07-20T14:36:49.915Z,95143.34
2018-07-20T14:39:20.046Z,95140.83
2018-07-20T14:41:50.086Z,95145.05
2018-07-20T14:44:20.154Z,95146.94
2018-07-20T14:46:50.231Z,95146.20
2018-07-20T14:49:20.231Z,95143.96
2018-07-20T14:51:50.318Z,95141.56
2018-07-20T14:54:20.397Z,95140.20
2018-07-20T14:56:50.445Z,95139.57
2018-07-20T14:59:20.627Z,95141.22
2018-07-20T15:01:50.662Z,95139.17
2018-07-20T15:04:20.689Z,95133.83
2018-07-20T15:06:50.874Z,95133.25
2018-07-20T15:09:20.909Z,95135.12
2018-07-20T15:11:50.955Z,95130.02
2018-07-20T15:14:21.298Z,95130.48
2018-07-20T15:16:51.534Z,95126.46
2018-07-20T15:19:21.565Z,95129.77
2018-07-20T15:21:51.655Z,95124.59
2018-07-20T15:24:21.663Z,95123.28
2018-07-20T15:26:51.723Z,95121.63
2018-07-20T15:29:21.717Z,95125.22
2018-07-20T15:31:51.817Z,95128.78
2018-07-20T15:34:21.868Z,95129.28
2018-07-20T15:36:51.911Z,95139.11
2018-07-20T15:39:22.007Z,95136.80
2018-07-20T15:41:52.112Z,95138.56
2018-07-20T15:44:22.121Z,95135.51
2018-07-20T15:46:52.465Z,95131.27
2018-07-20T15:49:22.198Z,95130.46
2018-07-20T15:54:22.352Z,95124.86
2018-07-20T15:56:52.377Z,95133.22
2018-07-20T15:59:22.399Z,95134.19
2018-07-20T16:01:52.551Z,95125.89
2018-07-20T16:04:22.601Z,95127.91
2018-07-20T16:06:52.674Z,95130.95
2018-07-20T16:09:22.693Z,95128.14
2018-07-20T16:11:52.770Z,95119.10
2018-07-20T16:14:22.831Z,95122.20
2018-07-20T16:16:52.897Z,95112.67
2018-07-20T16:19:22.938Z,95110.55
2018-07-20T16:21:53.031Z,95110.00
2018-07-20T16:24:23.099Z,95109.57
2018-07-20T16:26:53.169Z,95104.08
2018-07-20T16:29:23.164Z,95103.69
2018-07-20T16:31:53.261Z,95108.53
2018-07-20T16:34:23.285Z,95103.89
2018-07-20T16:36:53.250Z,95031.93
2018-07-20T16:39:23.430Z,95102.52
2018-07-20T16:41:53.482Z,95104.55
2018-07-20T16:44:23.619Z,95111.31
2018-07-20T16:46:53.651Z,95109.07
2018-07-20T16:49:23.799Z,95099.44
2018-07-20T16:51:53.861Z,95100.06
2018-07-20T16:54:23.945Z,95100.61
2018-07-20T16:56:53.953Z,95097.09
2018-07-20T16:59:24.024Z,95108.30
2018-07-20T17:01:54.058Z,95111.56
2018-07-20T17:04:23.758Z,95086.42
2018-07-20T17:06:53.789Z,95120.05
2018-07-20T17:09:23.851Z,95120.98
2018-07-20T17:11:53.946Z,95124.80
2018-07-20T17:14:23.998Z,95122.52
2018-07-20T17:16:54.058Z,95135.09
2018-07-20T17:19:24.151Z,95138.45
2018-07-20T17:21:54.154Z,95144.59
2018-07-20T17:24:23.799Z,95148.31
2018-07-20T17:26:53.810Z,95150.47
2018-07-20T17:29:24.237Z,95154.68
2018-07-20T17:31:54.283Z,95155.46
2018-07-20T17:34:24.408Z,95155.09
2018-07-20T17:36:54.421Z,95157.17
2018-07-20T17:39:24.526Z,95157.01
2018-07-20T17:41:54.517Z,95161.83
2018-07-20T17:44:24.582Z,95158.75
2018-07-20T17:46:54.620Z,95164.67
2018-07-20T17:49:24.655Z,95163.44
2018-07-20T17:51:54.653Z,95163.68
2018-07-20T17:54:24.700Z,95161.93
2018-07-20T17:56:54.833Z,95158.95
2018-07-20T17:59:24.929Z,95169.20
2018-07-20T18:01:55.079Z,95168.98
2018-07-20T18:04:26.112Z,95172.73
2018-07-20T18:06:56.101Z,95171.31
2018-07-20T18:09:26.211Z,95167.92
2018-07-20T18:11:56.214Z,95163.34
2018-07-20T18:14:26.295Z,95156.27
2018-07-20T18:16:56.350Z,95157.90
2018-07-20T18:19:25.954Z,95152.31
2018-07-20T18:21:55.629Z,95152.48
2018-07-20T18:24:25.728Z,95146.16
2018-07-20T18:26:55.810Z,95148.79
2018-07-20T18:29:25.817Z,95153.52
2018-07-20T18:31:55.839Z,95148.88
2018-07-20T18:34:25.985Z,95148.40
2018-07-20T18:36:56.006Z,95144.13
2018-07-20T18:39:26.055Z,95138.19
2018-07-20T18:41:56.061Z,95131.77
2018-07-20T18:44:26.109Z,95133.34
2018-07-20T18:46:56.147Z,95130.66
2018-07-20T18:49:26.216Z,95131.69
2018-07-20T18:51:56.226Z,95125.16
2018-07-20T18:54:25.884Z,95131.37
2018-07-20T18:56:55.888Z,95121.72
2018-07-20T18:59:26.326Z,95118.05
2018-07-20T19:01:56.494Z,95110.78
2018-07-20T19:04:26.921Z,95105.25
2018-07-20T19:06:56.954Z,95096.70
2018-07-20T19:09:27.411Z,95100.06
2018-07-20T19:11:57.719Z,95101.50
2018-07-20T19:14:28.050Z,95097.03
2018-07-20T19:16:58.093Z,95091.53
2018-07-20T19:19:28.130Z,95088.02
2018-07-20T19:21:58.148Z,95089.86
2018-07-20T19:24:28.185Z,95088.56
2018-07-20T19:26:58.258Z,95092.31
2018-07-20T19:29:28.256Z,95083.70
2018-07-20T19:31:58.466Z,95093.56
2018-07-20T19:34:28.723Z,95082.23
2018-07-20T19:36:58.724Z,95077.29
2018-07-20T19:39:28.873Z,95081.44
2018-07-20T19:41:58.881Z,95078.03
2018-07-20T19:44:28.922Z,95082.18
2018-07-20T19:46:59.140Z,95085.92
2018-07-20T19:49:30.448Z,95089.60
2018-07-20T19:52:00.502Z,95094.71
2018-07-20T19:54:30.938Z,95100.22
2018-07-20T19:57:01.885Z,95099.52
2018-07-20T19:59:32.844Z,95107.08
2018-07-20T20:02:02.880Z,95103.01
2018-07-20T20:04:32.938Z,95110.75
2018-07-20T20:07:03.940Z,95112.44
2018-07-20T20:09:34.025Z,95107.67
2018-07-20T20:12:04.437Z,95106.13
2018-07-20T20:14:34.449Z,95103.96
2018-07-20T20:17:04.566Z,95110.72
2018-07-20T20:19:34.575Z,95110.94
2018-07-20T20:22:04.680Z,95116.15
2018-07-20T20:24:34.750Z,95114.79
2018-07-20T20:27:05.488Z,95103.92
2018-07-20T20:29:35.549Z,95105.43
2018-07-20T20:32:06.144Z,95100.77
2018-07-20T20:34:36.620Z,95103.07
2018-07-20T20:37:07.076Z,95102.19
2018-07-20T20:39:37.133Z,95097.11
2018-07-20T20:42:07.484Z,95098.61
2018-07-20T20:44:38.090Z,95091.80
2018-07-20T20:47:08.449Z,95086.45
2018-07-20T20:49:38.549Z,95085.22
2018-07-20T20:52:09.062Z,95090.23
2018-07-20T20:54:39.098Z,95086.49
2018-07-20T20:57:09.270Z,95087.02
2018-07-20T20:59:39.312Z,95085.86
2018-07-20T21:02:09.415Z,95086.13
2018-07-20T21:04:39.475Z,95085.48
2018-07-20T21:07:09.550Z,95085.87
2018-07-20T21:09:39.873Z,95076.51
2018-07-20T21:12:10.079Z,95075.70
2018-07-20T21:14:40.015Z,95074.41
2018-07-20T21:17:10.019Z,95076.31
2018-07-20T21:19:40.099Z,95078.80
2018-07-20T21:22:10.113Z,95076.57
2018-07-20T21:24:40.180Z,95072.12
2018-07-20T21:27:10.253Z,95071.08
2018-07-20T21:29:40.240Z,95067.63
2018-07-20T21:32:10.332Z,95070.98
2018-07-20T21:34:40.396Z,95064.78
2018-07-20T21:37:10.547Z,95068.17
2018-07-20T21:39:40.581Z,95074.84
2018-07-20T21:42:10.706Z,95073.55
2018-07-20T21:44:40.729Z,95083.43
2018-07-20T21:47:10.831Z,95080.84
2018-07-20T21:49:40.834Z,95080.96
2018-07-20T21:52:10.969Z,95089.47
2018-07-20T21:54:41.009Z,95079.76
2018-07-20T21:57:11.038Z,95084.66
2018-07-20T21:59:41.072Z,95079.62
2018-07-20T22:02:11.326Z,95088.38
2018-07-20T22:04:40.951Z,95095.28
2018-07-20T22:07:10.999Z,95086.28
2018-07-20T22:09:40.969Z,95083.46
2018-07-20T22:12:11.066Z,95087.52
2018-07-20T22:14:41.081Z,95084.55
2018-07-20T22:17:11.102Z,95078.88
2018-07-20T22:19:41.124Z,95075.94
2018-07-20T22:22:11.209Z,95075.94
2018-07-20T22:24:41.247Z,95068.91
2018-07-20T22:27:12.228Z,95074.32
2018-07-20T22:29:42.277Z,95066.45
2018-07-20T22:32:12.391Z,95059.42
2018-07-20T22:34:42.051Z,95056.48
2018-07-20T22:37:12.087Z,95054.87
2018-07-20T22:39:42.143Z,95062.13
2018-07-20T22:42:12.219Z,95061.59
2018-07-20T22:44:42.596Z,95052.48
2018-07-20T22:47:12.811Z,95058.70
2018-07-20T22:49:42.822Z,95056.55
2018-07-20T22:52:12.898Z,95054.27
2018-07-20T22:54:42.931Z,95049.83
2018-07-20T22:57:12.969Z,95050.80
2018-07-20T22:59:43.041Z,95054.86
2018-07-20T23:02:12.663Z,95060.80
2018-07-20T23:04:42.686Z,95059.30
2018-07-20T23:07:12.762Z,95063.11
2018-07-20T23:09:42.779Z,95060.77
2018-07-20T23:12:12.938Z,95063.75
2018-07-20T23:14:42.695Z,95066.37
2018-07-20T23:17:12.693Z,95066.95
2018-07-20T23:19:42.731Z,95069.82
2018-07-20T23:22:12.734Z,95069.20
2018-07-20T23:24:42.787Z,95037.73
2018-07-20T23:27:12.850Z,95066.06
2018-07-20T23:29:42.923Z,95067.67
2018-07-20T23:32:13.023Z,95062.00
2018-07-20T23:34:43.065Z,95061.52
2018-07-20T23:37:13.143Z,95060.59
2018-07-20T23:39:43.207Z,95061.40
2018-07-20T23:42:13.249Z,95060.37
2018-07-20T23:44:43.287Z,95061.24
2018-07-20T23:47:13.350Z,95069.41
2018-07-20T23:49:43.394Z,95070.21
2018-07-20T23:52:13.442Z,95068.85
2018-07-20T23:54:43.604Z,95067.98
2018-07-20T23:57:13.641Z,95067.72
2018-07-20T23:59:43.695Z,95069.47
